This is the latest recevied weather packets stored in our database for station/object AA7VG. If no packets are shown the sender has not sent any weather packets the latest 10 day(s).
| Time | Temp. | Humidity | Pressure | Rain* | Wind** | Luminosity | Snow |
|---|---|---|---|---|---|---|---|
| 1777503552 | 12.78° C | 35% | 1020.4 hPa | 0 mm | - | - | - |
| 1777503249 | 12.22° C | 34% | 1020.2 hPa | 0 mm | - | - | - |
| 1777502945 | 12.22° C | 33% | 1020.2 hPa | 0 mm | - | - | - |
| 1777502643 | 12.22° C | 34% | 1020.4 hPa | 0 mm | - | - | - |
| 1777502340 | 12.78° C | 35% | 1020.3 hPa | 0 mm | - | - | - |
| 1777502036 | 13.33° C | 32% | 1020.5 hPa | 0 mm | - | - | - |
| 1777501733 | 13.33° C | 32% | 1020.4 hPa | 0 mm | - | - | - |
| 1777501431 | 13.33° C | 32% | 1020.7 hPa | 0 mm | - | - | - |
| 1777501128 | 13.33° C | 32% | 1020.4 hPa | 0 mm | - | - | - |
| 1777500826 | 13.89° C | 33% | 1020.8 hPa | 0 mm | - | - | - |
| 1777500523 | 15° C | 30% | 1020.4 hPa | 0 mm | - | - | - |
| 1777500219 | 15° C | 29% | 1020.8 hPa | 0 mm | - | - | - |
| 1777499916 | 15° C | 29% | 1021 hPa | 0 mm | - | - | - |
| 1777499612 | 13.89° C | 29% | 1020.7 hPa | 0 mm | - | - | - |
| 1777499310 | 12.78° C | 31% | 1020.4 hPa | 0 mm | - | - | - |
| 1777499007 | 11.67° C | 33% | 1020.9 hPa | 0 mm | - | - | - |
| 1777498703 | 11.67° C | 35% | 1020.7 hPa | 0 mm | - | - | - |
| 1777498400 | 11.67° C | 38% | 1020.8 hPa | 0 mm | - | - | - |
| 1777498097 | 12.22° C | 35% | 1020.8 hPa | 0 mm | - | - | - |
| 1777497794 | 12.22° C | 37% | 1020.8 hPa | 0 mm | - | - | - |
| 1777497490 | 13.33° C | 34% | 1021 hPa | 0 mm | - | - | - |
| 1777497187 | 13.33° C | 36% | 1020.8 hPa | 0 mm | - | - | - |
| 1777496883 | 12.78° C | 39% | 1020.5 hPa | 0 mm | - | - | - |
| 1777496580 | 12.78° C | 35% | 1020.8 hPa | 0 mm | - | - | - |
| 1777496276 | 11.67° C | 41% | 1020.7 hPa | 0 mm | - | - | - |
* Rain latest hour (hover to see other rain measurements)
** Current wind speed in m/s (hover to see current wind gust speed)